ANA571 RJCW-RJCC
Flight info
| Callsign | ANA571 |
|---|---|
| Flight time | 0h 30m |
| Altitude | 22000 |
| Route | YOROI Y10 RUMOI V1 KURIS |
| Aircraft | A320/M-SDE3FGHIRWY/LB1 |
Departure
| Time | 2026-05-07 11:46 |
|---|---|
| Airport | Wakkanai Airport (RJCW) |
Arrival
| Time | 2026-05-07 12:17 |
|---|---|
| Airport | New Chitose Airport (RJCC) |
| Time | Latitude | Longitude | Altitude | Speed | Heading |
|---|---|---|---|---|---|
| 2026-05-07 11:26 | 45.40004 | 141.79703 | 37 ft | 0 kts | 158° |
| 2026-05-07 11:38 | 45.40018 | 141.79695 | 40 ft | 4 kts | 158° |
| 2026-05-07 11:39 | 45.40043 | 141.79681 | 40 ft | 4 kts | 158° |
| 2026-05-07 11:39 | 45.40065 | 141.79669 | 42 ft | 4 kts | 171° |
| 2026-05-07 11:39 | 45.40085 | 141.79674 | 41 ft | 4 kts | 238° |
| 2026-05-07 11:39 | 45.40093 | 141.79708 | 39 ft | 4 kts | 256° |
| 2026-05-07 11:40 | 45.40096 | 141.79724 | 40 ft | 0 kts | 249° |
| 2026-05-07 11:42 | 45.40096 | 141.79670 | 40 ft | 11 kts | 288° |
| 2026-05-07 11:43 | 45.40164 | 141.79610 | 42 ft | 11 kts | 340° |
| 2026-05-07 11:43 | 45.40229 | 141.79576 | 41 ft | 8 kts | 338° |
| 2026-05-07 11:43 | 45.40255 | 141.79530 | 44 ft | 5 kts | 279° |
| 2026-05-07 11:43 | 45.40250 | 141.79490 | 44 ft | 3 kts | 250° |
| 2026-05-07 11:44 | 45.40233 | 141.79435 | 44 ft | 9 kts | 248° |
| 2026-05-07 11:44 | 45.40202 | 141.79318 | 43 ft | 16 kts | 249° |
| 2026-05-07 11:44 | 45.40161 | 141.79164 | 44 ft | 14 kts | 249° |
| 2026-05-07 11:44 | 45.40110 | 141.79040 | 42 ft | 16 kts | 222° |
| 2026-05-07 11:45 | 45.40070 | 141.78936 | 42 ft | 9 kts | 317° |
| 2026-05-07 11:45 | 45.40108 | 141.78971 | 41 ft | 7 kts | 65° |
| 2026-05-07 11:45 | 45.40117 | 141.79005 | 42 ft | 0 kts | 69° |
| 2026-05-07 11:45 | 45.40118 | 141.79008 | 42 ft | 8 kts | 70° |
| 2026-05-07 11:46 | 45.40241 | 141.79464 | 44 ft | 86 kts | 69° |
| 2026-05-07 11:46 | 45.40530 | 141.80524 | 44 ft | 144 kts | 69° |
| 2026-05-07 11:46 | 45.40905 | 141.81907 | 605 ft | 143 kts | 69° |
| 2026-05-07 11:46 | 45.41230 | 141.83254 | 1249 ft | 148 kts | 86° |
| 2026-05-07 11:47 | 45.40980 | 141.84688 | 1777 ft | 158 kts | 124° |
| 2026-05-07 11:47 | 45.40084 | 141.85713 | 2123 ft | 179 kts | 162° |
| 2026-05-07 11:47 | 45.38768 | 141.85736 | 2434 ft | 203 kts | 189° |
| 2026-05-07 11:47 | 45.37297 | 141.85369 | 2841 ft | 227 kts | 190° |
| 2026-05-07 11:48 | 45.35661 | 141.84954 | 3281 ft | 251 kts | 189° |
| 2026-05-07 11:48 | 45.33879 | 141.84504 | 3918 ft | 266 kts | 189° |
| 2026-05-07 11:48 | 45.32126 | 141.84065 | 4743 ft | 271 kts | 190° |
| 2026-05-07 11:48 | 45.30248 | 141.83605 | 5608 ft | 277 kts | 190° |
| 2026-05-07 11:49 | 45.28343 | 141.83146 | 6222 ft | 278 kts | 190° |
| 2026-05-07 11:49 | 45.26426 | 141.82760 | 7181 ft | 278 kts | 189° |
| 2026-05-07 11:49 | 45.24496 | 141.82427 | 8089 ft | 281 kts | 189° |
| 2026-05-07 11:49 | 45.22543 | 141.82112 | 8985 ft | 284 kts | 189° |
| 2026-05-07 11:50 | 45.20576 | 141.81799 | 9900 ft | 285 kts | 189° |
| 2026-05-07 11:50 | 45.18564 | 141.81477 | 10434 ft | 301 kts | 190° |
| 2026-05-07 11:50 | 45.16405 | 141.81122 | 10681 ft | 324 kts | 190° |
| 2026-05-07 11:50 | 45.14087 | 141.80736 | 10872 ft | 347 kts | 190° |
| 2026-05-07 11:51 | 45.11677 | 141.80338 | 11352 ft | 357 kts | 190° |
| 2026-05-07 11:51 | 45.09197 | 141.79933 | 12087 ft | 360 kts | 190° |
| 2026-05-07 11:51 | 45.06704 | 141.79526 | 12876 ft | 361 kts | 190° |
| 2026-05-07 11:51 | 45.04202 | 141.79118 | 13672 ft | 362 kts | 191° |
| 2026-05-07 11:52 | 45.01692 | 141.78707 | 14340 ft | 364 kts | 191° |
| 2026-05-07 11:52 | 44.99159 | 141.78369 | 14979 ft | 368 kts | 189° |
| 2026-05-07 11:52 | 44.96603 | 141.78181 | 15591 ft | 371 kts | 188° |
| 2026-05-07 11:52 | 44.94000 | 141.78086 | 16188 ft | 372 kts | 188° |
| 2026-05-07 11:53 | 44.91476 | 141.78044 | 17512 ft | 353 kts | 188° |
| 2026-05-07 11:53 | 44.89119 | 141.78013 | 18807 ft | 334 kts | 189° |
| 2026-05-07 11:53 | 44.86829 | 141.77967 | 19773 ft | 326 kts | 191° |
| 2026-05-07 11:53 | 44.84569 | 141.77890 | 20461 ft | 324 kts | 191° |
| 2026-05-07 11:54 | 44.82311 | 141.77786 | 21075 ft | 325 kts | 192° |
| 2026-05-07 11:54 | 44.80048 | 141.77670 | 21647 ft | 327 kts | 192° |
| 2026-05-07 11:54 | 44.77763 | 141.77552 | 22235 ft | 329 kts | 192° |
| 2026-05-07 11:54 | 44.75469 | 141.77438 | 22789 ft | 331 kts | 192° |
| 2026-05-07 11:55 | 44.73157 | 141.77328 | 23344 ft | 334 kts | 192° |
| 2026-05-07 11:55 | 44.70828 | 141.77221 | 23743 ft | 336 kts | 192° |
| 2026-05-07 11:55 | 44.68523 | 141.77121 | 23850 ft | 336 kts | 192° |
| 2026-05-07 11:55 | 44.66179 | 141.77021 | 23881 ft | 343 kts | 192° |
| 2026-05-07 11:56 | 44.63736 | 141.76901 | 23875 ft | 359 kts | 192° |
| 2026-05-07 11:56 | 44.61189 | 141.76771 | 23876 ft | 374 kts | 192° |
| 2026-05-07 11:56 | 44.58532 | 141.76642 | 23875 ft | 389 kts | 191° |
| 2026-05-07 11:56 | 44.55787 | 141.76517 | 23874 ft | 401 kts | 191° |
| 2026-05-07 11:57 | 44.52953 | 141.76397 | 23874 ft | 413 kts | 191° |
| 2026-05-07 11:57 | 44.50048 | 141.76284 | 23874 ft | 422 kts | 190° |
| 2026-05-07 11:57 | 44.47141 | 141.76175 | 23833 ft | 425 kts | 190° |
| 2026-05-07 11:57 | 44.44164 | 141.76061 | 23872 ft | 428 kts | 190° |
| 2026-05-07 11:58 | 44.41187 | 141.75944 | 23877 ft | 429 kts | 190° |
| 2026-05-07 11:58 | 44.38205 | 141.75826 | 23872 ft | 429 kts | 190° |
| 2026-05-07 11:58 | 44.35225 | 141.75704 | 23870 ft | 429 kts | 190° |
| 2026-05-07 11:58 | 44.32245 | 141.75577 | 23866 ft | 428 kts | 190° |
| 2026-05-07 11:59 | 44.29263 | 141.75445 | 23873 ft | 429 kts | 190° |
| 2026-05-07 11:59 | 44.26278 | 141.75311 | 23869 ft | 430 kts | 190° |
| 2026-05-07 11:59 | 44.23331 | 141.75182 | 23872 ft | 430 kts | 190° |
| 2026-05-07 11:59 | 44.20348 | 141.75056 | 23842 ft | 429 kts | 190° |
| 2026-05-07 12:00 | 44.17365 | 141.74932 | 23842 ft | 428 kts | 190° |
| 2026-05-07 12:00 | 44.14392 | 141.74808 | 23845 ft | 428 kts | 190° |
| 2026-05-07 12:00 | 44.11414 | 141.74680 | 23843 ft | 428 kts | 190° |
| 2026-05-07 12:00 | 44.08435 | 141.74549 | 23841 ft | 428 kts | 190° |
| 2026-05-07 12:01 | 44.05455 | 141.74416 | 23841 ft | 429 kts | 190° |
| 2026-05-07 12:01 | 44.02470 | 141.74283 | 23844 ft | 429 kts | 190° |
| 2026-05-07 12:01 | 43.99521 | 141.74154 | 23845 ft | 430 kts | 190° |
| 2026-05-07 12:01 | 43.96530 | 141.74027 | 23836 ft | 431 kts | 190° |
| 2026-05-07 12:02 | 43.93530 | 141.73902 | 23842 ft | 432 kts | 190° |
| 2026-05-07 12:02 | 43.90520 | 141.73775 | 23853 ft | 433 kts | 190° |
| 2026-05-07 12:02 | 43.87509 | 141.73649 | 23852 ft | 433 kts | 190° |
| 2026-05-07 12:02 | 43.84501 | 141.73522 | 23868 ft | 433 kts | 190° |
| 2026-05-07 12:03 | 43.81495 | 141.73392 | 23857 ft | 432 kts | 190° |
| 2026-05-07 12:03 | 43.78496 | 141.73262 | 23842 ft | 431 kts | 190° |
| 2026-05-07 12:03 | 43.75496 | 141.73135 | 23829 ft | 431 kts | 190° |
| 2026-05-07 12:03 | 43.72495 | 141.73007 | 23828 ft | 432 kts | 190° |
| 2026-05-07 12:04 | 43.69531 | 141.72881 | 23823 ft | 432 kts | 190° |
| 2026-05-07 12:04 | 43.66533 | 141.72765 | 23843 ft | 427 kts | 190° |
| 2026-05-07 12:04 | 43.63618 | 141.72676 | 23514 ft | 414 kts | 190° |
| 2026-05-07 12:04 | 43.60717 | 141.72586 | 22152 ft | 422 kts | 189° |
| 2026-05-07 12:05 | 43.57746 | 141.72478 | 20888 ft | 429 kts | 189° |
| 2026-05-07 12:05 | 43.54897 | 141.72377 | 19622 ft | 419 kts | 189° |
| 2026-05-07 12:05 | 43.52006 | 141.72278 | 18488 ft | 409 kts | 188° |
| 2026-05-07 12:05 | 43.49203 | 141.72186 | 17260 ft | 398 kts | 188° |
| 2026-05-07 12:06 | 43.46485 | 141.72102 | 16380 ft | 381 kts | 187° |
| 2026-05-07 12:06 | 43.43952 | 141.72028 | 15982 ft | 357 kts | 188° |
| 2026-05-07 12:06 | 43.41565 | 141.71962 | 15850 ft | 330 kts | 188° |
| 2026-05-07 12:06 | 43.39359 | 141.71899 | 15702 ft | 305 kts | 188° |
| 2026-05-07 12:07 | 43.37278 | 141.71829 | 15241 ft | 295 kts | 189° |
| 2026-05-07 12:07 | 43.35240 | 141.71733 | 14627 ft | 292 kts | 189° |
| 2026-05-07 12:07 | 43.33217 | 141.71615 | 14003 ft | 290 kts | 188° |
| 2026-05-07 12:07 | 43.31204 | 141.71488 | 13379 ft | 290 kts | 188° |
| 2026-05-07 12:08 | 43.29190 | 141.71362 | 12836 ft | 289 kts | 188° |
| 2026-05-07 12:08 | 43.27182 | 141.71245 | 12342 ft | 288 kts | 190° |
| 2026-05-07 12:08 | 43.25218 | 141.71127 | 11819 ft | 284 kts | 188° |
| 2026-05-07 12:08 | 43.23248 | 141.71014 | 11222 ft | 281 kts | 187° |
| 2026-05-07 12:09 | 43.21306 | 141.70910 | 10833 ft | 281 kts | 187° |
| 2026-05-07 12:09 | 43.19347 | 141.70803 | 10400 ft | 280 kts | 187° |
| 2026-05-07 12:09 | 43.17408 | 141.70700 | 9768 ft | 278 kts | 187° |
| 2026-05-07 12:09 | 43.15474 | 141.70669 | 9060 ft | 279 kts | 179° |
| 2026-05-07 12:10 | 43.13552 | 141.71144 | 8362 ft | 280 kts | 174° |
| 2026-05-07 12:10 | 43.11653 | 141.71678 | 7692 ft | 278 kts | 173° |
| 2026-05-07 12:10 | 43.09759 | 141.72208 | 7029 ft | 276 kts | 173° |
| 2026-05-07 12:10 | 43.07895 | 141.72729 | 6568 ft | 276 kts | 173° |
| 2026-05-07 12:11 | 43.06024 | 141.73096 | 5922 ft | 269 kts | 186° |
| 2026-05-07 12:11 | 43.04231 | 141.72613 | 5207 ft | 260 kts | 206° |
| 2026-05-07 12:11 | 43.02695 | 141.71393 | 4528 ft | 253 kts | 216° |
| 2026-05-07 12:11 | 43.01239 | 141.70074 | 3844 ft | 250 kts | 215° |
| 2026-05-07 12:12 | 42.99798 | 141.68778 | 3366 ft | 243 kts | 213° |
| 2026-05-07 12:12 | 42.98430 | 141.67554 | 3182 ft | 226 kts | 213° |
| 2026-05-07 12:12 | 42.97141 | 141.66497 | 3065 ft | 208 kts | 201° |
| 2026-05-07 12:12 | 42.95731 | 141.66194 | 2923 ft | 205 kts | 176° |
| 2026-05-07 12:13 | 42.94338 | 141.66437 | 2752 ft | 199 kts | 174° |
| 2026-05-07 12:13 | 42.92984 | 141.66682 | 2576 ft | 200 kts | 174° |
| 2026-05-07 12:13 | 42.91612 | 141.66926 | 2413 ft | 195 kts | 174° |
| 2026-05-07 12:13 | 42.90328 | 141.67154 | 2320 ft | 184 kts | 174° |
| 2026-05-07 12:14 | 42.89107 | 141.67370 | 2147 ft | 171 kts | 174° |
| 2026-05-07 12:14 | 42.87963 | 141.67572 | 1920 ft | 162 kts | 174° |
| 2026-05-07 12:14 | 42.86869 | 141.67765 | 1727 ft | 154 kts | 173° |
| 2026-05-07 12:14 | 42.85866 | 141.67942 | 1520 ft | 139 kts | 173° |
| 2026-05-07 12:15 | 42.84923 | 141.68108 | 1333 ft | 134 kts | 173° |
| 2026-05-07 12:15 | 42.84015 | 141.68268 | 1157 ft | 133 kts | 173° |
| 2026-05-07 12:15 | 42.83100 | 141.68426 | 959 ft | 133 kts | 173° |
| 2026-05-07 12:15 | 42.82184 | 141.68593 | 787 ft | 132 kts | 172° |
| 2026-05-07 12:16 | 42.81266 | 141.68751 | 630 ft | 135 kts | 172° |
| 2026-05-07 12:16 | 42.80338 | 141.68917 | 429 ft | 135 kts | 170° |
| 2026-05-07 12:16 | 42.79399 | 141.69084 | 245 ft | 136 kts | 172° |
| 2026-05-07 12:16 | 42.78468 | 141.69247 | 89 ft | 129 kts | 172° |
| 2026-05-07 12:17 | 42.77745 | 141.69378 | 72 ft | 82 kts | 174° |
| 2026-05-07 12:17 | 42.77409 | 141.69428 | 75 ft | 24 kts | 178° |
| 2026-05-07 12:17 | 42.77264 | 141.69372 | 72 ft | 21 kts | 202° |
| 2026-05-07 12:17 | 42.77120 | 141.69290 | 70 ft | 21 kts | 204° |
| 2026-05-07 12:18 | 42.77065 | 141.69162 | 80 ft | 11 kts | 261° |
| 2026-05-07 12:18 | 42.77056 | 141.69063 | 81 ft | 11 kts | 265° |
| 2026-05-07 12:18 | 42.77060 | 141.68940 | 76 ft | 14 kts | 287° |
| 2026-05-07 12:18 | 42.77134 | 141.68883 | 69 ft | 12 kts | 354° |
| 2026-05-07 12:19 | 42.77213 | 141.68872 | 67 ft | 11 kts | 354° |
| 2026-05-07 12:19 | 42.77282 | 141.68861 | 74 ft | 9 kts | 351° |
| 2026-05-07 12:19 | 42.77342 | 141.68848 | 75 ft | 9 kts | 350° |
| 2026-05-07 12:19 | 42.77433 | 141.68829 | 74 ft | 15 kts | 351° |
| 2026-05-07 12:20 | 42.77529 | 141.68809 | 71 ft | 13 kts | 352° |
| 2026-05-07 12:20 | 42.77615 | 141.68794 | 68 ft | 12 kts | 355° |
| 2026-05-07 12:20 | 42.77691 | 141.68785 | 68 ft | 10 kts | 354° |
| 2026-05-07 12:20 | 42.77759 | 141.68775 | 71 ft | 9 kts | 353° |
| 2026-05-07 12:21 | 42.77818 | 141.68766 | 73 ft | 8 kts | 353° |
| 2026-05-07 12:21 | 42.77871 | 141.68757 | 72 ft | 9 kts | 353° |
| 2026-05-07 12:21 | 42.77971 | 141.68722 | 73 ft | 19 kts | 328° |
| 2026-05-07 12:21 | 42.78057 | 141.68559 | 73 ft | 23 kts | 319° |
| 2026-05-07 12:22 | 42.78214 | 141.68507 | 73 ft | 24 kts | 352° |
| 2026-05-07 12:22 | 42.78387 | 141.68480 | 68 ft | 24 kts | 353° |
| 2026-05-07 12:22 | 42.78558 | 141.68451 | 68 ft | 22 kts | 353° |
| 2026-05-07 12:22 | 42.78696 | 141.68427 | 70 ft | 18 kts | 353° |
| 2026-05-07 12:23 | 42.78787 | 141.68387 | 73 ft | 10 kts | 292° |
| 2026-05-07 12:23 | 42.78788 | 141.68297 | 74 ft | 9 kts | 264° |
| 2026-05-07 12:23 | 42.78786 | 141.68273 | 74 ft | 0 kts | 264° |
| 2026-05-07 12:25 | 42.78786 | 141.68274 | 75 ft | 0 kts | 263° |